sensor_id;sensor_type;location;lat;lon;timestamp;P1;durP1;ratioP1;P2;durP2;ratioP2
47239;SDS011;32978;53.586;10.052;2022-08-19T00:01:48;14.82;;;9.38;;
47239;SDS011;32978;53.586;10.052;2022-08-19T00:06:48;14.48;;;10.15;;
47239;SDS011;32978;53.586;10.052;2022-08-19T00:11:45;18.88;;;14.32;;
47239;SDS011;32978;53.586;10.052;2022-08-19T00:16:43;22.10;;;15.05;;
47239;SDS011;32978;53.586;10.052;2022-08-19T00:21:39;26.85;;;17.98;;
47239;SDS011;32978;53.586;10.052;2022-08-19T00:26:36;28.67;;;18.75;;
47239;SDS011;32978;53.586;10.052;2022-08-19T00:31:33;27.05;;;16.98;;
47239;SDS011;32978;53.586;10.052;2022-08-19T00:36:29;24.55;;;15.55;;
47239;SDS011;32978;53.586;10.052;2022-08-19T00:41:26;24.15;;;15.18;;
47239;SDS011;32978;53.586;10.052;2022-08-19T00:46:22;25.75;;;16.58;;
47239;SDS011;32978;53.586;10.052;2022-08-19T00:51:18;25.30;;;15.70;;
47239;SDS011;32978;53.586;10.052;2022-08-19T00:56:15;26.58;;;17.98;;
47239;SDS011;32978;53.586;10.052;2022-08-19T01:01:11;27.75;;;17.55;;
47239;SDS011;32978;53.586;10.052;2022-08-19T01:06:07;27.02;;;16.80;;
47239;SDS011;32978;53.586;10.052;2022-08-19T01:11:04;30.50;;;17.13;;
47239;SDS011;32978;53.586;10.052;2022-08-19T01:16:02;26.25;;;16.83;;
47239;SDS011;32978;53.586;10.052;2022-08-19T01:21:01;25.25;;;16.75;;
47239;SDS011;32978;53.586;10.052;2022-08-19T01:25:58;24.60;;;15.23;;
47239;SDS011;32978;53.586;10.052;2022-08-19T01:30:54;25.77;;;15.27;;
47239;SDS011;32978;53.586;10.052;2022-08-19T01:35:50;25.67;;;17.30;;
47239;SDS011;32978;53.586;10.052;2022-08-19T01:40:48;27.70;;;16.27;;
47239;SDS011;32978;53.586;10.052;2022-08-19T01:45:45;24.23;;;14.85;;
47239;SDS011;32978;53.586;10.052;2022-08-19T01:50:42;24.40;;;16.02;;
47239;SDS011;32978;53.586;10.052;2022-08-19T01:55:40;21.60;;;15.05;;
47239;SDS011;32978;53.586;10.052;2022-08-19T02:00:37;25.95;;;15.93;;
47239;SDS011;32978;53.586;10.052;2022-08-19T02:05:33;28.02;;;18.08;;
47239;SDS011;32978;53.586;10.052;2022-08-19T02:10:30;34.17;;;18.98;;
47239;SDS011;32978;53.586;10.052;2022-08-19T02:15:28;25.27;;;16.73;;
47239;SDS011;32978;53.586;10.052;2022-08-19T02:20:24;25.25;;;16.48;;
47239;SDS011;32978;53.586;10.052;2022-08-19T02:25:20;26.45;;;16.20;;
47239;SDS011;32978;53.586;10.052;2022-08-19T02:30:17;30.30;;;18.85;;
47239;SDS011;32978;53.586;10.052;2022-08-19T02:35:15;29.48;;;19.02;;
47239;SDS011;32978;53.586;10.052;2022-08-19T02:40:11;27.90;;;17.58;;
47239;SDS011;32978;53.586;10.052;2022-08-19T02:45:08;28.67;;;17.48;;
47239;SDS011;32978;53.586;10.052;2022-08-19T02:50:05;31.08;;;17.15;;
47239;SDS011;32978;53.586;10.052;2022-08-19T02:55:02;31.20;;;18.80;;
47239;SDS011;32978;53.586;10.052;2022-08-19T02:59:58;32.30;;;19.20;;
47239;SDS011;32978;53.586;10.052;2022-08-19T03:04:55;38.38;;;21.13;;
47239;SDS011;32978;53.586;10.052;2022-08-19T03:09:51;35.10;;;19.83;;
47239;SDS011;32978;53.586;10.052;2022-08-19T03:14:47;38.00;;;21.73;;
47239;SDS011;32978;53.586;10.052;2022-08-19T03:19:44;33.45;;;18.98;;
47239;SDS011;32978;53.586;10.052;2022-08-19T03:24:40;38.65;;;19.85;;
47239;SDS011;32978;53.586;10.052;2022-08-19T03:29:37;37.47;;;19.02;;
47239;SDS011;32978;53.586;10.052;2022-08-19T03:39:36;39.00;;;20.90;;
47239;SDS011;32978;53.586;10.052;2022-08-19T03:44:33;40.83;;;19.75;;
47239;SDS011;32978;53.586;10.052;2022-08-19T03:49:30;38.78;;;20.38;;
47239;SDS011;32978;53.586;10.052;2022-08-19T03:54:27;40.15;;;20.48;;
47239;SDS011;32978;53.586;10.052;2022-08-19T03:59:25;39.65;;;20.42;;
47239;SDS011;32978;53.586;10.052;2022-08-19T04:04:22;37.35;;;17.35;;
47239;SDS011;32978;53.586;10.052;2022-08-19T04:09:19;38.05;;;20.75;;
47239;SDS011;32978;53.586;10.052;2022-08-19T04:14:16;35.55;;;19.20;;
47239;SDS011;32978;53.586;10.052;2022-08-19T04:19:14;27.67;;;17.08;;
47239;SDS011;32978;53.586;10.052;2022-08-19T04:24:11;34.17;;;16.80;;
47239;SDS011;32978;53.586;10.052;2022-08-19T04:29:09;35.63;;;17.75;;
47239;SDS011;32978;53.586;10.052;2022-08-19T04:34:08;45.15;;;21.50;;
47239;SDS011;32978;53.586;10.052;2022-08-19T04:39:08;35.78;;;19.48;;
47239;SDS011;32978;53.586;10.052;2022-08-19T04:44:05;39.13;;;20.98;;
47239;SDS011;32978;53.586;10.052;2022-08-19T04:49:04;48.53;;;22.23;;
47239;SDS011;32978;53.586;10.052;2022-08-19T04:54:08;46.13;;;23.90;;
47239;SDS011;32978;53.586;10.052;2022-08-19T04:59:06;36.42;;;21.80;;
47239;SDS011;32978;53.586;10.052;2022-08-19T05:04:03;43.90;;;24.45;;
47239;SDS011;32978;53.586;10.052;2022-08-19T05:09:02;41.47;;;23.20;;
47239;SDS011;32978;53.586;10.052;2022-08-19T05:14:01;52.80;;;28.02;;
47239;SDS011;32978;53.586;10.052;2022-08-19T05:18:57;44.72;;;23.30;;
47239;SDS011;32978;53.586;10.052;2022-08-19T05:24:12;45.83;;;22.90;;
47239;SDS011;32978;53.586;10.052;2022-08-19T05:29:09;40.85;;;24.70;;
47239;SDS011;32978;53.586;10.052;2022-08-19T05:34:06;46.58;;;24.63;;
47239;SDS011;32978;53.586;10.052;2022-08-19T05:39:17;44.38;;;26.42;;
47239;SDS011;32978;53.586;10.052;2022-08-19T05:44:14;41.10;;;25.92;;
47239;SDS011;32978;53.586;10.052;2022-08-19T05:49:11;41.45;;;24.90;;
47239;SDS011;32978;53.586;10.052;2022-08-19T05:54:07;43.50;;;26.40;;
47239;SDS011;32978;53.586;10.052;2022-08-19T05:59:05;40.60;;;24.00;;
47239;SDS011;32978;53.586;10.052;2022-08-19T06:04:05;36.83;;;23.98;;
47239;SDS011;32978;53.586;10.052;2022-08-19T06:09:06;36.72;;;22.95;;
47239;SDS011;32978;53.586;10.052;2022-08-19T06:14:03;46.10;;;26.08;;
47239;SDS011;32978;53.586;10.052;2022-08-19T06:19:00;36.08;;;22.25;;
47239;SDS011;32978;53.586;10.052;2022-08-19T06:23:57;41.60;;;21.65;;
47239;SDS011;32978;53.586;10.052;2022-08-19T06:28:54;37.90;;;22.13;;
47239;SDS011;32978;53.586;10.052;2022-08-19T06:33:50;34.63;;;21.42;;
47239;SDS011;32978;53.586;10.052;2022-08-19T06:38:47;50.20;;;27.10;;
47239;SDS011;32978;53.586;10.052;2022-08-19T06:43:43;37.13;;;22.95;;
47239;SDS011;32978;53.586;10.052;2022-08-19T06:48:41;37.53;;;23.73;;
47239;SDS011;32978;53.586;10.052;2022-08-19T06:53:41;44.70;;;26.33;;
47239;SDS011;32978;53.586;10.052;2022-08-19T06:58:44;40.38;;;25.65;;
47239;SDS011;32978;53.586;10.052;2022-08-19T07:03:40;39.38;;;23.65;;
47239;SDS011;32978;53.586;10.052;2022-08-19T07:08:37;40.17;;;24.48;;
47239;SDS011;32978;53.586;10.052;2022-08-19T07:13:39;38.90;;;23.15;;
47239;SDS011;32978;53.586;10.052;2022-08-19T07:18:36;40.35;;;24.88;;
47239;SDS011;32978;53.586;10.052;2022-08-19T07:23:33;49.85;;;26.52;;
47239;SDS011;32978;53.586;10.052;2022-08-19T07:28:30;46.97;;;25.45;;
47239;SDS011;32978;53.586;10.052;2022-08-19T07:33:27;46.92;;;26.20;;
47239;SDS011;32978;53.586;10.052;2022-08-19T07:38:24;44.70;;;27.58;;
47239;SDS011;32978;53.586;10.052;2022-08-19T07:43:22;51.17;;;27.45;;
47239;SDS011;32978;53.586;10.052;2022-08-19T07:48:30;43.03;;;24.92;;
47239;SDS011;32978;53.586;10.052;2022-08-19T07:53:26;44.63;;;26.15;;
47239;SDS011;32978;53.586;10.052;2022-08-19T07:58:22;38.33;;;23.30;;
47239;SDS011;32978;53.586;10.052;2022-08-19T08:03:20;42.40;;;23.70;;
47239;SDS011;32978;53.586;10.052;2022-08-19T08:08:37;33.33;;;20.05;;
47239;SDS011;32978;53.586;10.052;2022-08-19T08:13:53;34.10;;;20.80;;
47239;SDS011;32978;53.586;10.052;2022-08-19T08:18:57;33.72;;;20.02;;
47239;SDS011;32978;53.586;10.052;2022-08-19T08:23:53;35.67;;;22.08;;
47239;SDS011;32978;53.586;10.052;2022-08-19T08:28:52;34.97;;;22.05;;
47239;SDS011;32978;53.586;10.052;2022-08-19T08:33:48;31.70;;;19.70;;
47239;SDS011;32978;53.586;10.052;2022-08-19T08:38:45;30.60;;;18.85;;
47239;SDS011;32978;53.586;10.052;2022-08-19T08:43:44;32.30;;;19.80;;
47239;SDS011;32978;53.586;10.052;2022-08-19T08:54:05;28.90;;;18.92;;
47239;SDS011;32978;53.586;10.052;2022-08-19T08:59:06;24.10;;;12.45;;
47239;SDS011;32978;53.586;10.052;2022-08-19T09:04:04;20.50;;;12.48;;
47239;SDS011;32978;53.586;10.052;2022-08-19T09:19:24;23.95;;;12.95;;
47239;SDS011;32978;53.586;10.052;2022-08-19T09:24:25;26.27;;;15.35;;
47239;SDS011;32978;53.586;10.052;2022-08-19T09:29:26;22.63;;;14.68;;
47239;SDS011;32978;53.586;10.052;2022-08-19T09:34:22;23.20;;;15.30;;
47239;SDS011;32978;53.586;10.052;2022-08-19T09:39:19;25.10;;;17.05;;
47239;SDS011;32978;53.586;10.052;2022-08-19T09:44:15;26.80;;;14.80;;
47239;SDS011;32978;53.586;10.052;2022-08-19T09:49:13;29.27;;;15.25;;
47239;SDS011;32978;53.586;10.052;2022-08-19T09:54:10;26.65;;;15.77;;
47239;SDS011;32978;53.586;10.052;2022-08-19T09:59:06;23.13;;;14.38;;
47239;SDS011;32978;53.586;10.052;2022-08-19T10:04:03;28.52;;;16.25;;
47239;SDS011;32978;53.586;10.052;2022-08-19T10:09:16;32.38;;;15.32;;
47239;SDS011;32978;53.586;10.052;2022-08-19T10:14:29;22.73;;;14.40;;
47239;SDS011;32978;53.586;10.052;2022-08-19T10:19:26;26.85;;;12.98;;
47239;SDS011;32978;53.586;10.052;2022-08-19T10:24:26;23.67;;;14.27;;
47239;SDS011;32978;53.586;10.052;2022-08-19T10:29:23;22.58;;;14.18;;
47239;SDS011;32978;53.586;10.052;2022-08-19T10:34:28;25.33;;;14.02;;
47239;SDS011;32978;53.586;10.052;2022-08-19T10:39:25;23.95;;;15.18;;
47239;SDS011;32978;53.586;10.052;2022-08-19T10:44:26;24.45;;;14.10;;
47239;SDS011;32978;53.586;10.052;2022-08-19T10:49:27;28.63;;;15.75;;
47239;SDS011;32978;53.586;10.052;2022-08-19T10:54:24;26.75;;;17.33;;
47239;SDS011;32978;53.586;10.052;2022-08-19T10:59:40;25.63;;;16.60;;
47239;SDS011;32978;53.586;10.052;2022-08-19T11:04:37;27.63;;;16.48;;
47239;SDS011;32978;53.586;10.052;2022-08-19T11:09:39;27.08;;;17.20;;
47239;SDS011;32978;53.586;10.052;2022-08-19T11:14:35;27.05;;;16.00;;
47239;SDS011;32978;53.586;10.052;2022-08-19T11:19:32;26.38;;;15.88;;
47239;SDS011;32978;53.586;10.052;2022-08-19T11:24:29;25.58;;;16.73;;
47239;SDS011;32978;53.586;10.052;2022-08-19T11:29:26;26.90;;;15.85;;
47239;SDS011;32978;53.586;10.052;2022-08-19T11:34:25;31.48;;;16.27;;
47239;SDS011;32978;53.586;10.052;2022-08-19T11:39:23;27.42;;;16.38;;
47239;SDS011;32978;53.586;10.052;2022-08-19T11:44:20;21.15;;;14.07;;
47239;SDS011;32978;53.586;10.052;2022-08-19T11:49:17;19.58;;;13.45;;
47239;SDS011;32978;53.586;10.052;2022-08-19T11:54:18;23.52;;;15.32;;
47239;SDS011;32978;53.586;10.052;2022-08-19T11:59:14;21.92;;;15.95;;
47239;SDS011;32978;53.586;10.052;2022-08-19T12:04:10;21.30;;;14.27;;
47239;SDS011;32978;53.586;10.052;2022-08-19T12:09:08;15.32;;;11.27;;
47239;SDS011;32978;53.586;10.052;2022-08-19T12:14:10;17.75;;;11.68;;
47239;SDS011;32978;53.586;10.052;2022-08-19T12:19:10;18.95;;;12.57;;
47239;SDS011;32978;53.586;10.052;2022-08-19T12:24:06;15.85;;;10.82;;
47239;SDS011;32978;53.586;10.052;2022-08-19T12:29:03;17.08;;;11.35;;
47239;SDS011;32978;53.586;10.052;2022-08-19T12:34:00;17.10;;;11.27;;
47239;SDS011;32978;53.586;10.052;2022-08-19T12:38:58;18.60;;;11.25;;
47239;SDS011;32978;53.586;10.052;2022-08-19T12:43:54;17.10;;;11.00;;
47239;SDS011;32978;53.586;10.052;2022-08-19T12:48:51;16.88;;;11.98;;
47239;SDS011;32978;53.586;10.052;2022-08-19T12:53:51;16.88;;;10.73;;
47239;SDS011;32978;53.586;10.052;2022-08-19T12:58:47;14.55;;;10.30;;
47239;SDS011;32978;53.586;10.052;2022-08-19T13:03:46;16.10;;;13.00;;
47239;SDS011;32978;53.586;10.052;2022-08-19T13:08:42;14.88;;;10.63;;
47239;SDS011;32978;53.586;10.052;2022-08-19T13:13:42;19.90;;;11.73;;
47239;SDS011;32978;53.586;10.052;2022-08-19T13:18:39;13.48;;;9.85;;
47239;SDS011;32978;53.586;10.052;2022-08-19T13:23:35;14.80;;;10.43;;
47239;SDS011;32978;53.586;10.052;2022-08-19T13:28:32;12.00;;;9.00;;
47239;SDS011;32978;53.586;10.052;2022-08-19T13:33:47;14.25;;;10.80;;
47239;SDS011;32978;53.586;10.052;2022-08-19T13:38:43;14.18;;;10.60;;
47239;SDS011;32978;53.586;10.052;2022-08-19T13:43:40;13.57;;;10.20;;
47239;SDS011;32978;53.586;10.052;2022-08-19T13:48:37;16.13;;;10.05;;
47239;SDS011;32978;53.586;10.052;2022-08-19T13:53:33;14.20;;;10.30;;
47239;SDS011;32978;53.586;10.052;2022-08-19T13:58:30;14.48;;;11.70;;
47239;SDS011;32978;53.586;10.052;2022-08-19T14:03:27;13.32;;;10.80;;
47239;SDS011;32978;53.586;10.052;2022-08-19T14:08:27;13.25;;;10.63;;
47239;SDS011;32978;53.586;10.052;2022-08-19T14:13:24;14.07;;;10.77;;
47239;SDS011;32978;53.586;10.052;2022-08-19T14:18:20;12.05;;;10.75;;
47239;SDS011;32978;53.586;10.052;2022-08-19T14:23:17;12.70;;;10.02;;
47239;SDS011;32978;53.586;10.052;2022-08-19T14:28:15;12.60;;;9.93;;
47239;SDS011;32978;53.586;10.052;2022-08-19T14:33:13;12.13;;;10.82;;
47239;SDS011;32978;53.586;10.052;2022-08-19T14:38:14;14.00;;;11.60;;
47239;SDS011;32978;53.586;10.052;2022-08-19T14:43:11;12.55;;;10.50;;
47239;SDS011;32978;53.586;10.052;2022-08-19T14:48:08;16.17;;;12.57;;
47239;SDS011;32978;53.586;10.052;2022-08-19T14:53:15;12.98;;;11.50;;
47239;SDS011;32978;53.586;10.052;2022-08-19T14:58:13;12.15;;;10.55;;
47239;SDS011;32978;53.586;10.052;2022-08-19T15:03:25;13.43;;;11.50;;
47239;SDS011;32978;53.586;10.052;2022-08-19T15:08:22;12.38;;;10.45;;
47239;SDS011;32978;53.586;10.052;2022-08-19T15:13:21;11.68;;;10.45;;
47239;SDS011;32978;53.586;10.052;2022-08-19T15:18:18;13.40;;;11.43;;
47239;SDS011;32978;53.586;10.052;2022-08-19T15:23:17;14.68;;;12.35;;
47239;SDS011;32978;53.586;10.052;2022-08-19T15:28:14;12.95;;;11.40;;
47239;SDS011;32978;53.586;10.052;2022-08-19T15:33:12;12.48;;;10.27;;
47239;SDS011;32978;53.586;10.052;2022-08-19T15:38:13;15.33;;;11.30;;
47239;SDS011;32978;53.586;10.052;2022-08-19T15:43:09;15.68;;;12.07;;
47239;SDS011;32978;53.586;10.052;2022-08-19T15:48:06;12.40;;;10.57;;
47239;SDS011;32978;53.586;10.052;2022-08-19T15:53:05;14.52;;;11.57;;
47239;SDS011;32978;53.586;10.052;2022-08-19T15:58:06;14.18;;;10.15;;
47239;SDS011;32978;53.586;10.052;2022-08-19T16:03:24;12.98;;;10.95;;
47239;SDS011;32978;53.586;10.052;2022-08-19T16:08:42;13.60;;;11.82;;
47239;SDS011;32978;53.586;10.052;2022-08-19T16:13:44;11.05;;;9.95;;
47239;SDS011;32978;53.586;10.052;2022-08-19T16:18:40;13.20;;;10.50;;
47239;SDS011;32978;53.586;10.052;2022-08-19T16:23:37;9.48;;;8.48;;
47239;SDS011;32978;53.586;10.052;2022-08-19T16:28:33;11.82;;;10.63;;
47239;SDS011;32978;53.586;10.052;2022-08-19T16:33:30;13.30;;;11.75;;
47239;SDS011;32978;53.586;10.052;2022-08-19T16:38:27;12.45;;;11.25;;
47239;SDS011;32978;53.586;10.052;2022-08-19T16:43:23;11.27;;;10.07;;
47239;SDS011;32978;53.586;10.052;2022-08-19T16:48:21;14.85;;;13.20;;
47239;SDS011;32978;53.586;10.052;2022-08-19T16:53:21;11.52;;;10.43;;
47239;SDS011;32978;53.586;10.052;2022-08-19T16:58:25;10.23;;;9.32;;
47239;SDS011;32978;53.586;10.052;2022-08-19T17:03:23;11.48;;;10.48;;
47239;SDS011;32978;53.586;10.052;2022-08-19T17:08:31;11.07;;;10.07;;
47239;SDS011;32978;53.586;10.052;2022-08-19T17:13:27;11.57;;;10.02;;
47239;SDS011;32978;53.586;10.052;2022-08-19T17:18:24;11.38;;;10.27;;
47239;SDS011;32978;53.586;10.052;2022-08-19T17:23:27;13.45;;;10.73;;
47239;SDS011;32978;53.586;10.052;2022-08-19T17:28:38;12.85;;;11.55;;
47239;SDS011;32978;53.586;10.052;2022-08-19T17:33:35;12.85;;;11.43;;
47239;SDS011;32978;53.586;10.052;2022-08-19T17:38:36;12.77;;;11.50;;
47239;SDS011;32978;53.586;10.052;2022-08-19T17:43:34;14.05;;;11.40;;
47239;SDS011;32978;53.586;10.052;2022-08-19T17:48:37;11.80;;;9.50;;
47239;SDS011;32978;53.586;10.052;2022-08-19T17:53:34;13.60;;;10.93;;
47239;SDS011;32978;53.586;10.052;2022-08-19T17:58:31;13.13;;;11.38;;
47239;SDS011;32978;53.586;10.052;2022-08-19T18:03:27;12.82;;;10.70;;
47239;SDS011;32978;53.586;10.052;2022-08-19T18:08:25;10.40;;;9.30;;
47239;SDS011;32978;53.586;10.052;2022-08-19T18:13:21;12.25;;;10.32;;
47239;SDS011;32978;53.586;10.052;2022-08-19T18:18:18;13.82;;;11.20;;
47239;SDS011;32978;53.586;10.052;2022-08-19T18:23:14;11.48;;;10.27;;
47239;SDS011;32978;53.586;10.052;2022-08-19T18:28:30;12.90;;;10.18;;
47239;SDS011;32978;53.586;10.052;2022-08-19T18:33:27;11.25;;;10.00;;
47239;SDS011;32978;53.586;10.052;2022-08-19T18:38:23;10.82;;;9.60;;
47239;SDS011;32978;53.586;10.052;2022-08-19T18:43:38;16.48;;;10.23;;
47239;SDS011;32978;53.586;10.052;2022-08-19T18:48:53;13.68;;;10.38;;
47239;SDS011;32978;53.586;10.052;2022-08-19T18:54:02;13.65;;;10.50;;
47239;SDS011;32978;53.586;10.052;2022-08-19T18:58:59;11.82;;;9.23;;
47239;SDS011;32978;53.586;10.052;2022-08-19T19:03:57;10.75;;;9.65;;
47239;SDS011;32978;53.586;10.052;2022-08-19T19:08:55;11.27;;;9.32;;
47239;SDS011;32978;53.586;10.052;2022-08-19T19:13:52;14.32;;;12.05;;
47239;SDS011;32978;53.586;10.052;2022-08-19T19:18:48;13.55;;;10.30;;
47239;SDS011;32978;53.586;10.052;2022-08-19T19:23:47;14.63;;;10.60;;
47239;SDS011;32978;53.586;10.052;2022-08-19T19:28:43;10.98;;;8.82;;
47239;SDS011;32978;53.586;10.052;2022-08-19T19:33:41;13.90;;;10.45;;
47239;SDS011;32978;53.586;10.052;2022-08-19T19:38:38;14.90;;;11.60;;
47239;SDS011;32978;53.586;10.052;2022-08-19T19:43:34;14.98;;;10.90;;
47239;SDS011;32978;53.586;10.052;2022-08-19T19:48:36;17.88;;;12.10;;
47239;SDS011;32978;53.586;10.052;2022-08-19T19:53:33;17.50;;;12.55;;
47239;SDS011;32978;53.586;10.052;2022-08-19T19:58:30;17.15;;;12.38;;
47239;SDS011;32978;53.586;10.052;2022-08-19T20:03:27;12.93;;;11.23;;
47239;SDS011;32978;53.586;10.052;2022-08-19T20:08:25;14.23;;;10.70;;
47239;SDS011;32978;53.586;10.052;2022-08-19T20:13:41;13.00;;;10.57;;
47239;SDS011;32978;53.586;10.052;2022-08-19T20:18:37;17.00;;;11.50;;
47239;SDS011;32978;53.586;10.052;2022-08-19T20:23:34;11.85;;;10.27;;
47239;SDS011;32978;53.586;10.052;2022-08-19T20:28:30;15.55;;;12.75;;
47239;SDS011;32978;53.586;10.052;2022-08-19T20:33:27;16.58;;;11.95;;
47239;SDS011;32978;53.586;10.052;2022-08-19T20:38:25;16.08;;;13.32;;
47239;SDS011;32978;53.586;10.052;2022-08-19T20:43:21;14.48;;;12.40;;
47239;SDS011;32978;53.586;10.052;2022-08-19T20:48:17;15.77;;;12.75;;
47239;SDS011;32978;53.586;10.052;2022-08-19T20:53:15;15.07;;;12.25;;
47239;SDS011;32978;53.586;10.052;2022-08-19T20:58:12;15.48;;;13.18;;
47239;SDS011;32978;53.586;10.052;2022-08-19T21:03:08;16.42;;;13.15;;
47239;SDS011;32978;53.586;10.052;2022-08-19T21:08:04;17.08;;;13.48;;
47239;SDS011;32978;53.586;10.052;2022-08-19T21:13:01;18.27;;;12.25;;
47239;SDS011;32978;53.586;10.052;2022-08-19T21:17:58;18.50;;;13.82;;
47239;SDS011;32978;53.586;10.052;2022-08-19T21:22:55;14.77;;;12.88;;
47239;SDS011;32978;53.586;10.052;2022-08-19T21:27:51;19.08;;;13.98;;
47239;SDS011;32978;53.586;10.052;2022-08-19T21:32:47;15.82;;;13.63;;
47239;SDS011;32978;53.586;10.052;2022-08-19T21:37:48;19.73;;;15.10;;
47239;SDS011;32978;53.586;10.052;2022-08-19T21:42:45;17.70;;;14.65;;
47239;SDS011;32978;53.586;10.052;2022-08-19T21:47:41;20.15;;;15.85;;
47239;SDS011;32978;53.586;10.052;2022-08-19T21:52:38;17.90;;;14.65;;
47239;SDS011;32978;53.586;10.052;2022-08-19T21:57:35;19.00;;;14.68;;
47239;SDS011;32978;53.586;10.052;2022-08-19T22:02:31;17.45;;;14.02;;
47239;SDS011;32978;53.586;10.052;2022-08-19T22:07:27;18.98;;;15.40;;
47239;SDS011;32978;53.586;10.052;2022-08-19T22:12:25;16.88;;;14.48;;
47239;SDS011;32978;53.586;10.052;2022-08-19T22:17:22;17.95;;;14.27;;
47239;SDS011;32978;53.586;10.052;2022-08-19T22:22:20;18.67;;;15.48;;
47239;SDS011;32978;53.586;10.052;2022-08-19T22:27:17;18.60;;;15.40;;
47239;SDS011;32978;53.586;10.052;2022-08-19T22:32:15;16.48;;;14.18;;
47239;SDS011;32978;53.586;10.052;2022-08-19T22:37:24;19.45;;;15.20;;
47239;SDS011;32978;53.586;10.052;2022-08-19T22:42:20;17.05;;;14.02;;
47239;SDS011;32978;53.586;10.052;2022-08-19T22:47:17;17.70;;;14.15;;
47239;SDS011;32978;53.586;10.052;2022-08-19T22:52:15;16.35;;;14.10;;
47239;SDS011;32978;53.586;10.052;2022-08-19T22:57:14;18.50;;;15.13;;
47239;SDS011;32978;53.586;10.052;2022-08-19T23:02:15;17.30;;;14.85;;
47239;SDS011;32978;53.586;10.052;2022-08-19T23:07:13;20.15;;;15.23;;
47239;SDS011;32978;53.586;10.052;2022-08-19T23:12:09;16.45;;;14.32;;
47239;SDS011;32978;53.586;10.052;2022-08-19T23:17:08;17.52;;;14.20;;
47239;SDS011;32978;53.586;10.052;2022-08-19T23:22:04;15.60;;;12.52;;
47239;SDS011;32978;53.586;10.052;2022-08-19T23:27:01;17.90;;;12.43;;
47239;SDS011;32978;53.586;10.052;2022-08-19T23:32:18;16.40;;;12.55;;
47239;SDS011;32978;53.586;10.052;2022-08-19T23:37:15;17.08;;;13.27;;
47239;SDS011;32978;53.586;10.052;2022-08-19T23:42:11;16.00;;;12.80;;
47239;SDS011;32978;53.586;10.052;2022-08-19T23:47:08;16.73;;;12.75;;
47239;SDS011;32978;53.586;10.052;2022-08-19T23:52:04;15.88;;;11.02;;
47239;SDS011;32978;53.586;10.052;2022-08-19T23:57:01;12.55;;;10.25;;
